createdAt,value
2018-12-06T00:00:33.927Z,1004.37
2018-12-06T00:02:38.106Z,1004.25
2018-12-06T00:03:38.091Z,1004.25
2018-12-06T00:05:42.269Z,1004.26
2018-12-06T00:06:42.231Z,1004.26
2018-12-06T00:08:46.406Z,1004.18
2018-12-06T00:09:46.403Z,1004.10
2018-12-06T00:11:50.565Z,1003.99
2018-12-06T00:12:50.551Z,1004.01
2018-12-06T00:14:54.707Z,1003.84
2018-12-06T00:15:54.677Z,1003.71
2018-12-06T00:17:47.797Z,1003.65
2018-12-06T00:18:47.757Z,1003.59
2018-12-06T00:20:51.942Z,1003.52
2018-12-06T00:21:51.920Z,1003.44
2018-12-06T00:23:56.118Z,1003.32
2018-12-06T00:24:56.090Z,1003.28
2018-12-06T00:27:00.263Z,1003.10
2018-12-06T00:28:00.238Z,1003.02
2018-12-06T00:30:04.426Z,1002.85
2018-12-06T00:31:04.386Z,1002.77
2018-12-06T00:33:08.554Z,1002.65
2018-12-06T00:34:08.535Z,1002.62
2018-12-06T00:36:12.717Z,1002.62
2018-12-06T00:37:12.680Z,1002.61
2018-12-06T00:39:16.852Z,1002.56
2018-12-06T00:40:16.827Z,1002.58
2018-12-06T00:42:21.019Z,1002.57
2018-12-06T00:43:20.978Z,1002.62
2018-12-06T00:45:25.155Z,1002.68
2018-12-06T00:46:25.131Z,1002.68
2018-12-06T00:48:18.240Z,1002.81
2018-12-06T00:49:18.212Z,1002.93
2018-12-06T00:51:22.389Z,1003.09
2018-12-06T00:52:22.363Z,1003.12
2018-12-06T00:54:26.550Z,1003.20
2018-12-06T00:55:26.517Z,1003.26
2018-12-06T00:57:30.692Z,1003.37
2018-12-06T00:58:30.671Z,1003.42
2018-12-06T01:00:34.851Z,1003.60
2018-12-06T01:01:34.817Z,1003.67
2018-12-06T01:03:39.006Z,1003.80
2018-12-06T01:04:38.977Z,1003.81
2018-12-06T01:06:43.165Z,1003.94
2018-12-06T01:07:43.122Z,1004.04
2018-12-06T01:09:47.301Z,1004.09
2018-12-06T01:10:47.275Z,1004.09
2018-12-06T01:12:51.465Z,1004.11
2018-12-06T01:13:51.435Z,1004.14
2018-12-06T01:15:55.687Z,1004.26
2018-12-06T01:16:55.591Z,1004.28
2018-12-06T01:18:59.848Z,1004.35
2018-12-06T01:19:59.743Z,1004.37
2018-12-06T01:22:03.920Z,1004.40
2018-12-06T01:23:03.892Z,1004.39
2018-12-06T01:25:08.077Z,1004.43
2018-12-06T01:26:08.048Z,1004.42
2018-12-06T01:28:01.154Z,1004.43
2018-12-06T01:29:01.122Z,1004.45
2018-12-06T01:31:05.304Z,1004.46
2018-12-06T01:32:05.266Z,1004.46
2018-12-06T01:34:09.450Z,1004.45
2018-12-06T01:35:09.414Z,1004.46
2018-12-06T01:37:02.748Z,1004.44
2018-12-06T01:38:02.707Z,1004.49
2018-12-06T01:40:06.885Z,1004.40
2018-12-06T01:41:06.858Z,1004.36
2018-12-06T01:43:11.049Z,1004.32
2018-12-06T01:44:11.018Z,1004.35
2018-12-06T01:46:15.196Z,1004.30
2018-12-06T01:47:15.170Z,1004.29
2018-12-06T01:49:19.353Z,1004.16
2018-12-06T01:50:19.314Z,1004.08
2018-12-06T01:52:23.490Z,1004.00
2018-12-06T01:53:23.463Z,1003.98
2018-12-06T01:55:27.646Z,1003.89
2018-12-06T01:56:27.611Z,1003.96
2018-12-06T01:58:20.729Z,1003.91
2018-12-06T01:59:20.705Z,1003.90
2018-12-06T02:01:24.908Z,1003.85
2018-12-06T02:02:24.867Z,1003.80
2018-12-06T02:04:29.056Z,1003.87
2018-12-06T02:05:29.021Z,1003.91
2018-12-06T02:07:33.204Z,1004.11
2018-12-06T02:08:33.171Z,1004.13
2018-12-06T02:10:37.369Z,1004.18
2018-12-06T02:11:37.316Z,1004.20
2018-12-06T02:13:41.497Z,1004.36
2018-12-06T02:14:41.469Z,1004.40
2018-12-06T02:16:45.669Z,1004.46
2018-12-06T02:17:45.622Z,1004.44
2018-12-06T02:19:49.790Z,1004.45
2018-12-06T02:20:49.767Z,1004.43
2018-12-06T02:22:53.951Z,1004.39
2018-12-06T02:23:53.915Z,1004.34
2018-12-06T02:25:58.090Z,1004.31
2018-12-06T02:26:58.077Z,1004.35
2018-12-06T02:29:02.241Z,1004.31
2018-12-06T02:30:02.244Z,1004.35
2018-12-06T02:32:06.388Z,1004.51
2018-12-06T02:33:06.365Z,1004.59
2018-12-06T02:35:10.546Z,1004.38
2018-12-06T02:36:10.511Z,1004.43
2018-12-06T02:38:03.633Z,1004.34
2018-12-06T02:39:03.608Z,1004.29
2018-12-06T02:41:07.798Z,1004.25
2018-12-06T02:42:07.767Z,1004.31
2018-12-06T02:44:11.958Z,1004.23
2018-12-06T02:45:12.880Z,1004.21
2018-12-06T02:47:16.090Z,1004.15
2018-12-06T02:48:16.065Z,1004.17
2018-12-06T02:50:20.271Z,1004.21
2018-12-06T02:51:20.216Z,1004.28
2018-12-06T02:53:24.395Z,1004.32
2018-12-06T02:54:24.372Z,1004.34
2018-12-06T02:56:28.555Z,1004.31
2018-12-06T02:57:28.519Z,1004.36
2018-12-06T02:59:32.692Z,1004.32
2018-12-06T03:00:32.672Z,1004.29
2018-12-06T03:02:36.855Z,1004.27
2018-12-06T03:03:36.826Z,1004.24
2018-12-06T03:05:40.998Z,1004.23
2018-12-06T03:06:40.963Z,1004.24
2018-12-06T03:08:34.083Z,1004.27
2018-12-06T03:09:34.052Z,1004.24
2018-12-06T03:11:38.237Z,1004.30
2018-12-06T03:12:38.211Z,1004.31
2018-12-06T03:14:42.407Z,1004.33
2018-12-06T03:15:42.371Z,1004.36
2018-12-06T03:17:46.561Z,1004.35
2018-12-06T03:18:46.536Z,1004.32
2018-12-06T03:20:50.727Z,1004.26
2018-12-06T03:21:50.693Z,1004.19
2018-12-06T03:23:54.862Z,1004.11
2018-12-06T03:24:54.845Z,1004.14
2018-12-06T03:26:59.026Z,1004.06
2018-12-06T03:27:58.994Z,1004.03
2018-12-06T03:30:03.208Z,1003.94
2018-12-06T03:31:03.152Z,1003.91
2018-12-06T03:33:07.330Z,1003.85
2018-12-06T03:34:07.299Z,1003.86
2018-12-06T03:36:11.468Z,1003.85
2018-12-06T03:37:11.443Z,1003.82
2018-12-06T03:39:15.627Z,1003.81
2018-12-06T03:40:15.597Z,1003.85
2018-12-06T03:42:19.806Z,1003.87
2018-12-06T03:43:19.764Z,1003.87
2018-12-06T03:45:23.956Z,1003.85
2018-12-06T03:46:23.921Z,1003.84
2018-12-06T03:48:17.024Z,1003.87
2018-12-06T03:49:16.997Z,1003.85
2018-12-06T03:51:21.190Z,1003.93
2018-12-06T03:52:21.151Z,1003.88
2018-12-06T03:54:25.323Z,1003.91
2018-12-06T03:55:25.301Z,1003.91
2018-12-06T03:57:29.485Z,1003.91
2018-12-06T03:58:29.447Z,1003.86
2018-12-06T04:00:33.624Z,1003.89
2018-12-06T04:01:33.598Z,1003.87
2018-12-06T04:03:37.792Z,1003.83
2018-12-06T04:04:37.752Z,1003.82
2018-12-06T04:06:41.964Z,1003.82
2018-12-06T04:07:41.902Z,1003.82
2018-12-06T04:09:46.098Z,1003.85
2018-12-06T04:10:46.048Z,1003.82
2018-12-06T04:12:50.223Z,1003.83
2018-12-06T04:13:50.198Z,1003.83
2018-12-06T04:15:54.384Z,1003.83
2018-12-06T04:16:54.350Z,1003.81
2018-12-06T04:18:58.526Z,1003.82
2018-12-06T04:19:58.501Z,1003.79
2018-12-06T04:22:02.690Z,1003.81
2018-12-06T04:23:02.670Z,1003.80
2018-12-06T04:25:06.824Z,1003.86
2018-12-06T04:26:06.814Z,1003.84
2018-12-06T04:27:59.921Z,1003.89
2018-12-06T04:28:59.883Z,1003.86
2018-12-06T04:31:04.054Z,1003.82
2018-12-06T04:32:04.028Z,1003.79
2018-12-06T04:34:08.226Z,1003.80
2018-12-06T04:35:08.190Z,1003.76
2018-12-06T04:37:12.377Z,1003.77
2018-12-06T04:38:12.350Z,1003.73
2018-12-06T04:40:16.544Z,1003.69
2018-12-06T04:41:16.509Z,1003.62
2018-12-06T04:43:20.688Z,1003.67
2018-12-06T04:44:20.654Z,1003.66
2018-12-06T04:46:24.845Z,1003.70
2018-12-06T04:47:24.808Z,1003.67
2018-12-06T04:49:28.997Z,1003.69
2018-12-06T04:50:28.958Z,1003.70
2018-12-06T04:52:33.155Z,1003.67
2018-12-06T04:53:33.145Z,1003.67
2018-12-06T04:55:37.301Z,1003.67
2018-12-06T04:56:37.273Z,1003.68
2018-12-06T04:58:30.396Z,1003.67
2018-12-06T04:59:30.357Z,1003.61
2018-12-06T05:01:34.534Z,1003.62
2018-12-06T05:02:34.508Z,1003.65
2018-12-06T05:04:38.693Z,1003.63
2018-12-06T05:05:38.660Z,1003.60
2018-12-06T05:07:31.968Z,1003.62
2018-12-06T05:08:31.942Z,1003.67
2018-12-06T05:10:36.128Z,1003.66
2018-12-06T05:11:36.093Z,1003.64
2018-12-06T05:13:40.274Z,1003.65
2018-12-06T05:14:40.246Z,1003.65
2018-12-06T05:16:44.427Z,1003.64
2018-12-06T05:17:44.399Z,1003.62
2018-12-06T05:19:48.577Z,1003.64
2018-12-06T05:20:48.562Z,1003.64
2018-12-06T05:22:52.736Z,1003.66
2018-12-06T05:23:52.698Z,1003.74
2018-12-06T05:25:56.879Z,1003.74
2018-12-06T05:26:56.851Z,1003.69
2018-12-06T05:29:01.038Z,1003.79
2018-12-06T05:30:01.008Z,1003.77
2018-12-06T05:32:05.188Z,1003.83
2018-12-06T05:33:05.164Z,1003.87
2018-12-06T05:35:09.355Z,1003.86
2018-12-06T05:36:09.316Z,1003.86
2018-12-06T05:38:02.423Z,1003.85
2018-12-06T05:39:02.398Z,1003.85
2018-12-06T05:41:06.571Z,1003.85
2018-12-06T05:42:06.549Z,1003.89
2018-12-06T05:44:10.737Z,1003.91
2018-12-06T05:45:10.697Z,1003.91
2018-12-06T05:47:14.902Z,1003.89
2018-12-06T05:48:14.847Z,1003.92
2018-12-06T05:50:19.025Z,1004.01
2018-12-06T05:51:19.000Z,1004.04
2018-12-06T05:53:23.184Z,1004.08
2018-12-06T05:54:23.152Z,1004.09
2018-12-06T05:56:27.322Z,1004.07
2018-12-06T05:57:27.293Z,1004.08
2018-12-06T05:59:31.496Z,1004.08
2018-12-06T06:00:31.489Z,1004.02
2018-12-06T06:02:35.640Z,1004.09
2018-12-06T06:03:35.619Z,1004.09
2018-12-06T06:05:39.802Z,1004.13
2018-12-06T06:06:39.775Z,1004.14
2018-12-06T06:08:32.897Z,1004.13
2018-12-06T06:09:32.872Z,1004.13
2018-12-06T06:11:37.053Z,1004.13
2018-12-06T06:12:37.018Z,1004.11
2018-12-06T06:14:41.193Z,1004.19
2018-12-06T06:15:41.170Z,1004.21
2018-12-06T06:17:45.360Z,1004.25
2018-12-06T06:18:45.321Z,1004.29
2018-12-06T06:20:49.513Z,1004.34
2018-12-06T06:21:49.471Z,1004.32
2018-12-06T06:23:53.659Z,1004.33
2018-12-06T06:24:53.624Z,1004.35
2018-12-06T06:26:57.804Z,1004.33
2018-12-06T06:27:57.780Z,1004.35
2018-12-06T06:30:01.965Z,1004.41
2018-12-06T06:31:01.930Z,1004.39
2018-12-06T06:33:06.104Z,1004.43
2018-12-06T06:34:06.079Z,1004.42
2018-12-06T06:36:10.266Z,1004.48
2018-12-06T06:37:10.230Z,1004.50
2018-12-06T06:39:14.399Z,1004.52
2018-12-06T06:40:14.375Z,1004.55
2018-12-06T06:42:18.562Z,1004.57
2018-12-06T06:43:18.528Z,1004.60
2018-12-06T06:45:22.716Z,1004.62
2018-12-06T06:46:22.683Z,1004.61
2018-12-06T06:48:15.822Z,1004.65
2018-12-06T06:49:15.791Z,1004.67
2018-12-06T06:51:19.969Z,1004.72
2018-12-06T06:52:19.944Z,1004.70
2018-12-06T06:54:24.160Z,1004.74
2018-12-06T06:55:24.099Z,1004.75
2018-12-06T06:57:28.271Z,1004.77
2018-12-06T06:58:28.256Z,1004.79
2018-12-06T07:00:32.444Z,1004.87
2018-12-06T07:01:32.406Z,1004.87
2018-12-06T07:03:36.584Z,1004.91
2018-12-06T07:04:36.559Z,1004.91
2018-12-06T07:06:40.746Z,1005.04
2018-12-06T07:07:40.707Z,1005.03
2018-12-06T07:09:44.889Z,1005.08
2018-12-06T07:10:44.864Z,1005.11
2018-12-06T07:12:49.049Z,1005.19
2018-12-06T07:13:49.013Z,1005.15
2018-12-06T07:15:53.197Z,1005.23
2018-12-06T07:16:53.172Z,1005.20
2018-12-06T07:18:57.359Z,1005.23
2018-12-06T07:19:57.328Z,1005.24
2018-12-06T07:22:01.522Z,1005.31
2018-12-06T07:23:01.484Z,1005.32
2018-12-06T07:25:05.685Z,1005.33
2018-12-06T07:26:05.661Z,1005.35
2018-12-06T07:27:58.805Z,1005.37
2018-12-06T07:28:58.745Z,1005.39
2018-12-06T07:31:02.923Z,1005.35
2018-12-06T07:32:02.900Z,1005.35
2018-12-06T07:34:07.106Z,1005.41
2018-12-06T07:35:07.056Z,1005.37
2018-12-06T07:37:11.232Z,1005.38
2018-12-06T07:38:11.210Z,1005.36
2018-12-06T07:40:15.399Z,1005.36
2018-12-06T07:41:15.360Z,1005.45
2018-12-06T07:43:19.541Z,1005.45
2018-12-06T07:44:19.519Z,1005.39
2018-12-06T07:46:23.700Z,1005.50
2018-12-06T07:47:23.670Z,1005.51
2018-12-06T07:49:27.849Z,1005.46
2018-12-06T07:50:27.819Z,1005.53
2018-12-06T07:52:32.020Z,1005.52
2018-12-06T07:53:31.982Z,1005.52
2018-12-06T07:55:36.174Z,1005.59
2018-12-06T07:56:36.141Z,1005.62
2018-12-06T07:58:29.277Z,1005.62
2018-12-06T07:59:29.243Z,1005.67
2018-12-06T08:01:33.417Z,1005.70
2018-12-06T08:02:33.395Z,1005.66
2018-12-06T08:04:37.587Z,1005.73
2018-12-06T08:05:37.553Z,1005.78
2018-12-06T08:07:41.730Z,1005.78
2018-12-06T08:08:41.707Z,1005.74
2018-12-06T08:10:45.926Z,1005.77
2018-12-06T08:11:45.869Z,1005.78
2018-12-06T08:13:50.057Z,1005.82
2018-12-06T08:14:50.030Z,1005.92
2018-12-06T08:16:54.222Z,1005.93
2018-12-06T08:17:54.193Z,1005.88
2018-12-06T08:19:58.364Z,1005.87
2018-12-06T08:20:58.337Z,1005.89
2018-12-06T08:23:02.538Z,1005.88
2018-12-06T08:24:02.501Z,1005.86
2018-12-06T08:26:06.679Z,1005.88
2018-12-06T08:27:06.661Z,1005.88
2018-12-06T08:29:10.849Z,1005.87
2018-12-06T08:30:10.811Z,1005.99
2018-12-06T08:32:14.993Z,1005.96
2018-12-06T08:33:14.969Z,1006.03
2018-12-06T08:35:19.160Z,1006.07
2018-12-06T08:36:19.121Z,1006.09
2018-12-06T08:38:12.351Z,1006.16
2018-12-06T08:39:12.210Z,1006.18
2018-12-06T08:41:16.396Z,1006.19
2018-12-06T08:42:16.362Z,1006.20
2018-12-06T08:44:21.510Z,1006.23
2018-12-06T08:45:20.520Z,1006.22
2018-12-06T08:47:24.732Z,1006.30
2018-12-06T08:48:24.684Z,1006.33
2018-12-06T08:50:28.861Z,1006.33
2018-12-06T08:51:28.842Z,1006.29
2018-12-06T08:53:33.027Z,1006.18
2018-12-06T08:54:32.998Z,1006.26
2018-12-06T08:56:37.180Z,1006.27
2018-12-06T08:57:37.156Z,1006.25
2018-12-06T08:59:41.351Z,1006.27
2018-12-06T09:00:41.369Z,1006.26
2018-12-06T09:02:45.494Z,1006.34
2018-12-06T09:03:45.471Z,1006.34
2018-12-06T09:05:49.667Z,1006.40
2018-12-06T09:06:49.629Z,1006.35
2018-12-06T09:08:53.818Z,1006.33
2018-12-06T09:09:53.785Z,1006.37
2018-12-06T09:11:47.112Z,1006.41
2018-12-06T09:12:47.071Z,1006.42
2018-12-06T09:14:51.245Z,1006.45
2018-12-06T09:15:51.240Z,1006.38
2018-12-06T09:17:44.344Z,1006.37
2018-12-06T09:18:44.317Z,1006.35
2018-12-06T09:20:48.495Z,1006.36
2018-12-06T09:21:48.472Z,1006.38
2018-12-06T09:23:52.693Z,1006.41
2018-12-06T09:24:52.657Z,1006.36
2018-12-06T09:26:59.014Z,1006.43
2018-12-06T09:27:56.812Z,1006.44
2018-12-06T09:30:01.030Z,1006.41
2018-12-06T09:31:01.365Z,1006.44
2018-12-06T09:33:05.178Z,1006.48
2018-12-06T09:34:05.164Z,1006.55
2018-12-06T09:36:09.344Z,1006.55
2018-12-06T09:37:09.318Z,1006.56
2018-12-06T09:39:13.785Z,1006.57
2018-12-06T09:40:13.495Z,1006.49
2018-12-06T09:42:17.682Z,1006.45
2018-12-06T09:43:17.635Z,1006.43
2018-12-06T09:45:21.813Z,1006.46
2018-12-06T09:46:21.792Z,1006.45
2018-12-06T09:48:14.958Z,1006.45
2018-12-06T09:49:14.882Z,1006.44
2018-12-06T09:51:19.068Z,1006.46
2018-12-06T09:52:19.042Z,1006.48
2018-12-06T09:54:23.235Z,1006.48
2018-12-06T09:55:23.205Z,1006.46
2018-12-06T09:57:27.399Z,1006.45
2018-12-06T09:58:27.377Z,1006.42
2018-12-06T10:00:31.585Z,1006.47
2018-12-06T10:01:31.554Z,1006.51
2018-12-06T10:03:35.737Z,1006.52
2018-12-06T10:04:35.715Z,1006.53
2018-12-06T10:06:39.910Z,1006.57
2018-12-06T10:07:39.885Z,1006.59
2018-12-06T10:09:44.060Z,1006.56
2018-12-06T10:10:44.038Z,1006.57
2018-12-06T10:12:48.256Z,1006.65
2018-12-06T10:13:48.203Z,1006.63
2018-12-06T10:15:52.378Z,1006.65
2018-12-06T10:16:52.364Z,1006.66
2018-12-06T10:18:56.554Z,1006.73
2018-12-06T10:19:56.522Z,1006.70
2018-12-06T10:22:00.710Z,1006.74
2018-12-06T10:23:00.678Z,1006.68
2018-12-06T10:25:04.865Z,1006.63
2018-12-06T10:26:04.841Z,1006.62
2018-12-06T10:27:57.967Z,1006.64
2018-12-06T10:28:57.930Z,1006.70
2018-12-06T10:31:02.116Z,1006.69
2018-12-06T10:32:02.090Z,1006.70
2018-12-06T10:34:06.300Z,1006.72
2018-12-06T10:35:06.272Z,1006.71
2018-12-06T10:37:10.451Z,1006.68
2018-12-06T10:38:10.429Z,1006.70
2018-12-06T10:40:14.627Z,1006.71
2018-12-06T10:41:14.589Z,1006.68
2018-12-06T10:43:18.781Z,1006.66
2018-12-06T10:44:18.753Z,1006.66
2018-12-06T10:46:22.955Z,1006.67
2018-12-06T10:47:22.928Z,1006.66
2018-12-06T10:49:27.107Z,1006.73
2018-12-06T10:50:27.086Z,1006.75
2018-12-06T10:52:31.274Z,1006.73
2018-12-06T10:53:31.240Z,1006.73
2018-12-06T10:55:35.417Z,1006.81
2018-12-06T10:56:35.395Z,1006.83
2018-12-06T10:58:28.509Z,1006.85
2018-12-06T10:59:28.481Z,1006.78
2018-12-06T11:01:32.671Z,1006.81
2018-12-06T11:02:32.724Z,1006.85
2018-12-06T11:04:36.898Z,1006.86
2018-12-06T11:05:36.864Z,1006.85
2018-12-06T11:07:41.043Z,1006.86
2018-12-06T11:08:41.063Z,1006.91
2018-12-06T11:10:45.208Z,1006.92
2018-12-06T11:11:45.177Z,1006.94
2018-12-06T11:13:49.398Z,1006.89
2018-12-06T11:14:49.338Z,1006.85
2018-12-06T11:16:53.525Z,1006.83
2018-12-06T11:17:53.503Z,1006.86
2018-12-06T11:19:57.697Z,1006.88
2018-12-06T11:20:57.664Z,1006.86
2018-12-06T11:23:01.847Z,1006.81
2018-12-06T11:24:01.822Z,1006.86
2018-12-06T11:26:06.010Z,1006.79
2018-12-06T11:27:05.979Z,1006.88
2018-12-06T11:29:10.178Z,1006.90
2018-12-06T11:30:10.155Z,1006.79
2018-12-06T11:32:14.347Z,1006.88
2018-12-06T11:33:14.312Z,1006.88
2018-12-06T11:35:18.496Z,1006.85
2018-12-06T11:36:18.474Z,1006.84
2018-12-06T11:38:11.603Z,1006.80
2018-12-06T11:39:11.576Z,1006.80
2018-12-06T11:41:15.788Z,1006.78
2018-12-06T11:42:15.752Z,1006.71
2018-12-06T11:44:19.969Z,1006.78
2018-12-06T11:45:19.918Z,1006.74
2018-12-06T11:47:24.097Z,1006.76
2018-12-06T11:48:27.098Z,1006.68
2018-12-06T11:50:28.264Z,1006.65
2018-12-06T11:51:28.235Z,1006.61
2018-12-06T11:53:32.418Z,1006.61
2018-12-06T11:54:32.396Z,1006.62
2018-12-06T11:56:36.601Z,1006.48
2018-12-06T11:57:36.562Z,1006.42
2018-12-06T11:59:40.748Z,1006.48
2018-12-06T12:00:40.723Z,1006.46
2018-12-06T12:02:44.913Z,1006.47
2018-12-06T12:03:44.882Z,1006.47
2018-12-06T12:05:49.087Z,1006.40
2018-12-06T12:06:49.062Z,1006.40
2018-12-06T12:08:42.390Z,1006.48
2018-12-06T12:09:42.354Z,1006.51
2018-12-06T12:11:46.545Z,1006.39
2018-12-06T12:12:46.522Z,1006.35
2018-12-06T12:14:51.027Z,1006.31
2018-12-06T12:15:50.699Z,1006.42
2018-12-06T12:17:43.827Z,1006.39
2018-12-06T12:18:43.789Z,1006.29
2018-12-06T12:20:47.974Z,1006.29
2018-12-06T12:21:47.957Z,1006.33
2018-12-06T12:23:52.152Z,1006.31
2018-12-06T12:24:52.119Z,1006.25
2018-12-06T12:26:56.320Z,1006.22
2018-12-06T12:27:56.298Z,1006.19
2018-12-06T12:30:00.496Z,1006.23
2018-12-06T12:31:00.495Z,1006.25
2018-12-06T12:33:04.650Z,1006.25
2018-12-06T12:34:04.635Z,1006.18
2018-12-06T12:36:08.828Z,1006.18
2018-12-06T12:37:08.797Z,1006.19
2018-12-06T12:39:12.984Z,1006.13
2018-12-06T12:40:12.962Z,1006.09
2018-12-06T12:42:17.229Z,1006.17
2018-12-06T12:43:17.123Z,1006.12
2018-12-06T12:45:21.307Z,1006.09
2018-12-06T12:46:21.295Z,1006.04
2018-12-06T12:48:14.411Z,1006.02
2018-12-06T12:49:14.449Z,1006.12
2018-12-06T12:51:18.572Z,1006.06
2018-12-06T12:52:18.553Z,1006.03
2018-12-06T12:54:22.761Z,1006.04
2018-12-06T12:55:22.743Z,1006.16
2018-12-06T12:57:26.916Z,1006.21
2018-12-06T12:58:26.895Z,1006.23
2018-12-06T13:00:31.093Z,1006.25
2018-12-06T13:01:31.061Z,1006.21
2018-12-06T13:03:35.272Z,1006.26
2018-12-06T13:04:35.225Z,1006.26
2018-12-06T13:06:39.416Z,1006.33
2018-12-06T13:07:39.390Z,1006.37
2018-12-06T13:09:43.576Z,1006.40
2018-12-06T13:10:43.555Z,1006.39
2018-12-06T13:12:47.745Z,1006.38
2018-12-06T13:13:47.718Z,1006.38
2018-12-06T13:15:51.908Z,1006.35
2018-12-06T13:16:51.900Z,1006.24
2018-12-06T13:18:56.086Z,1006.26
2018-12-06T13:19:56.046Z,1006.34
2018-12-06T13:22:00.238Z,1006.44
2018-12-06T13:23:00.217Z,1006.39
2018-12-06T13:25:04.415Z,1006.43
2018-12-06T13:26:04.382Z,1006.48
2018-12-06T13:27:57.501Z,1006.38
2018-12-06T13:28:57.482Z,1006.39
2018-12-06T13:31:01.685Z,1006.41
2018-12-06T13:32:01.660Z,1006.36
2018-12-06T13:34:05.868Z,1006.43
2018-12-06T13:35:05.824Z,1006.46
2018-12-06T13:37:10.038Z,1006.50
2018-12-06T13:38:10.007Z,1006.51
2018-12-06T13:40:14.189Z,1006.45
2018-12-06T13:41:14.172Z,1006.48
2018-12-06T13:43:18.371Z,1006.52
2018-12-06T13:44:18.345Z,1006.53
2018-12-06T13:46:22.525Z,1006.49
2018-12-06T13:47:22.502Z,1006.51
2018-12-06T13:49:26.700Z,1006.53
2018-12-06T13:50:26.669Z,1006.50
2018-12-06T13:52:30.851Z,1006.56
2018-12-06T13:53:30.830Z,1006.52
2018-12-06T13:55:35.027Z,1006.52
2018-12-06T13:56:34.999Z,1006.56
2018-12-06T13:58:28.115Z,1006.63
2018-12-06T13:59:28.093Z,1006.66
2018-12-06T14:01:32.307Z,1006.59
2018-12-06T14:02:32.278Z,1006.58
2018-12-06T14:04:36.462Z,1006.52
2018-12-06T14:05:36.440Z,1006.51
2018-12-06T14:07:40.643Z,1006.34
2018-12-06T14:08:40.610Z,1006.44
2018-12-06T14:10:44.797Z,1006.48
2018-12-06T14:11:44.778Z,1006.49
2018-12-06T14:13:48.975Z,1006.52
2018-12-06T14:14:50.060Z,1006.53
2018-12-06T14:16:53.123Z,1006.62
2018-12-06T14:17:53.103Z,1006.68
2018-12-06T14:19:57.869Z,1006.63
2018-12-06T14:20:57.458Z,1006.68
2018-12-06T14:23:01.659Z,1006.69
2018-12-06T14:24:01.642Z,1006.69
2018-12-06T14:26:05.869Z,1006.67
2018-12-06T14:27:05.828Z,1006.62
2018-12-06T14:29:10.009Z,1006.56
2018-12-06T14:30:09.986Z,1006.51
2018-12-06T14:32:14.195Z,1006.56
2018-12-06T14:33:14.157Z,1006.54
2018-12-06T14:35:18.337Z,1006.52
2018-12-06T14:36:18.321Z,1006.55
2018-12-06T14:38:11.443Z,1006.51
2018-12-06T14:39:11.413Z,1006.52
2018-12-06T14:41:15.598Z,1006.53
2018-12-06T14:42:15.579Z,1006.55
2018-12-06T14:44:19.781Z,1006.59
2018-12-06T14:45:19.750Z,1006.56
2018-12-06T14:47:23.937Z,1006.57
2018-12-06T14:48:23.917Z,1006.57
2018-12-06T14:50:28.106Z,1006.67
2018-12-06T14:51:28.074Z,1006.59
2018-12-06T14:53:32.267Z,1006.60
2018-12-06T14:54:32.241Z,1006.65
2018-12-06T14:56:36.445Z,1006.65
2018-12-06T14:57:36.421Z,1006.69
2018-12-06T14:59:40.614Z,1006.64
2018-12-06T15:00:40.592Z,1006.65
2018-12-06T15:02:44.788Z,1006.66
2018-12-06T15:03:44.756Z,1006.75
2018-12-06T15:05:48.940Z,1006.82
2018-12-06T15:06:48.917Z,1006.81
2018-12-06T15:08:53.126Z,1006.82
2018-12-06T15:09:53.093Z,1006.76
2018-12-06T15:11:57.279Z,1006.88
2018-12-06T15:12:57.257Z,1006.88
2018-12-06T15:15:01.468Z,1006.93
2018-12-06T15:16:01.429Z,1006.95
2018-12-06T15:17:54.553Z,1006.93
2018-12-06T15:18:54.530Z,1007.02
2018-12-06T15:20:58.720Z,1007.01
2018-12-06T15:21:58.694Z,1007.03
2018-12-06T15:24:02.893Z,1007.07
2018-12-06T15:25:02.873Z,1007.05
2018-12-06T15:27:07.077Z,1007.02
2018-12-06T15:28:07.050Z,1007.01
2018-12-06T15:30:11.234Z,1007.01
2018-12-06T15:31:11.215Z,1006.97
2018-12-06T15:33:15.403Z,1006.99
2018-12-06T15:34:15.375Z,1006.99
2018-12-06T15:36:19.570Z,1006.90
2018-12-06T15:37:19.546Z,1006.98
2018-12-06T15:39:23.737Z,1006.87
2018-12-06T15:40:23.712Z,1006.83
2018-12-06T15:42:27.902Z,1006.92
2018-12-06T15:43:27.889Z,1006.92
2018-12-06T15:45:32.077Z,1006.94
2018-12-06T15:46:32.041Z,1006.90
2018-12-06T15:48:25.172Z,1006.88
2018-12-06T15:49:25.148Z,1006.86
2018-12-06T15:51:29.342Z,1006.94
2018-12-06T15:52:29.308Z,1006.86
2018-12-06T15:54:33.534Z,1006.90
2018-12-06T15:55:33.511Z,1006.93
2018-12-06T15:57:37.702Z,1006.91
2018-12-06T15:58:37.670Z,1006.81
2018-12-06T16:00:41.855Z,1006.82
2018-12-06T16:01:41.832Z,1006.86
2018-12-06T16:03:46.039Z,1006.88
2018-12-06T16:04:45.999Z,1006.87
2018-12-06T16:06:50.183Z,1006.81
2018-12-06T16:07:50.158Z,1006.83
2018-12-06T16:09:54.358Z,1006.79
2018-12-06T16:10:54.328Z,1006.76
2018-12-06T16:12:58.510Z,1006.76
2018-12-06T16:13:58.491Z,1006.78
2018-12-06T16:16:02.690Z,1006.77
2018-12-06T16:17:02.733Z,1006.78
2018-12-06T16:19:06.844Z,1006.77
2018-12-06T16:20:06.825Z,1006.85
2018-12-06T16:22:11.029Z,1006.81
2018-12-06T16:23:10.998Z,1006.82
2018-12-06T16:25:15.181Z,1006.85
2018-12-06T16:26:15.158Z,1006.83
2018-12-06T16:28:08.283Z,1006.85
2018-12-06T16:29:08.247Z,1006.85
2018-12-06T16:31:12.447Z,1006.84
2018-12-06T16:32:12.415Z,1006.86
2018-12-06T16:34:16.608Z,1006.86
2018-12-06T16:35:16.585Z,1006.86
2018-12-06T16:37:20.785Z,1006.96
2018-12-06T16:38:20.749Z,1006.96
2018-12-06T16:40:24.933Z,1006.96
2018-12-06T16:41:24.912Z,1006.95
2018-12-06T16:43:29.100Z,1006.85
2018-12-06T16:44:29.087Z,1006.84
2018-12-06T16:46:33.261Z,1006.85
2018-12-06T16:47:33.244Z,1006.88
2018-12-06T16:49:37.441Z,1006.92
2018-12-06T16:50:37.408Z,1006.89
2018-12-06T16:52:41.590Z,1006.89
2018-12-06T16:53:41.570Z,1006.98
2018-12-06T16:55:45.772Z,1007.02
2018-12-06T16:56:45.739Z,1007.07
2018-12-06T16:58:38.859Z,1007.07
2018-12-06T16:59:38.835Z,1007.03
2018-12-06T17:01:43.023Z,1007.11
2018-12-06T17:02:43.001Z,1007.14
2018-12-06T17:04:47.203Z,1007.16
2018-12-06T17:05:47.163Z,1007.20
2018-12-06T17:07:51.359Z,1007.22
2018-12-06T17:08:51.330Z,1007.22
2018-12-06T17:10:55.511Z,1007.18
2018-12-06T17:11:55.488Z,1007.20
2018-12-06T17:13:59.682Z,1007.18
2018-12-06T17:14:59.648Z,1007.21
2018-12-06T17:17:03.831Z,1007.16
2018-12-06T17:18:03.817Z,1007.24
2018-12-06T17:20:08.011Z,1007.20
2018-12-06T17:21:07.974Z,1007.28
2018-12-06T17:23:12.160Z,1007.16
2018-12-06T17:24:12.138Z,1007.23
2018-12-06T17:26:16.336Z,1007.20
2018-12-06T17:27:16.344Z,1007.23
2018-12-06T17:29:20.486Z,1007.32
2018-12-06T17:30:20.462Z,1007.35
2018-12-06T17:32:24.661Z,1007.37
2018-12-06T17:33:24.628Z,1007.39
2018-12-06T17:35:28.818Z,1007.42
2018-12-06T17:36:28.792Z,1007.40
2018-12-06T17:38:21.917Z,1007.41
2018-12-06T17:39:21.886Z,1007.43
2018-12-06T17:41:26.072Z,1007.39
2018-12-06T17:42:26.047Z,1007.39
2018-12-06T17:44:30.271Z,1007.36
2018-12-06T17:45:30.232Z,1007.35
2018-12-06T17:47:34.426Z,1007.40
2018-12-06T17:48:34.398Z,1007.35
2018-12-06T17:50:38.584Z,1007.35
2018-12-06T17:51:38.558Z,1007.28
2018-12-06T17:53:42.750Z,1007.23
2018-12-06T17:54:42.725Z,1007.30
2018-12-06T17:56:46.928Z,1007.31
2018-12-06T17:57:46.899Z,1007.29
2018-12-06T17:59:51.087Z,1007.29
2018-12-06T18:00:51.062Z,1007.30
2018-12-06T18:02:55.273Z,1007.31
2018-12-06T18:03:55.245Z,1007.31
2018-12-06T18:05:59.426Z,1007.30
2018-12-06T18:06:59.407Z,1007.26
2018-12-06T18:09:03.595Z,1007.32
2018-12-06T18:10:03.568Z,1007.20
2018-12-06T18:12:07.775Z,1007.31
2018-12-06T18:13:07.733Z,1007.27
2018-12-06T18:15:11.920Z,1007.29
2018-12-06T18:16:19.233Z,1007.27
2018-12-06T18:18:05.015Z,1007.27
2018-12-06T18:19:04.979Z,1007.25
2018-12-06T18:21:09.168Z,1007.28
2018-12-06T18:22:09.146Z,1007.31
2018-12-06T18:24:18.663Z,1007.32
2018-12-06T18:25:13.309Z,1007.29
2018-12-06T18:27:06.622Z,1007.28